Main page
METAR-TAF:

METAR-TAF

Airports :

Fujairah International Airport

Fujairah, United Arab Emirates

latitude: 25-06N, longitude: 056-20E, elevation: 28 m

Current weather observation

The report was made 27 minutes ago, at 18:00 UTC
Wind 3 kt from the South/Southwest
Temperature 22°C
Humidity 65%
Pressure 1013 hPa
Visibility: 7000 m

METAR: OMFJ 281800Z 20003KT 7000 NSC 22/15 Q1013 RMK A2992

Time: 22:27 (18:27 UTC)

Forecast

The report was made 1 hour and 27 minutes ago, at 17:00 UTC
Forecast valid from 28 at 18 UTC to 29 at 24 UTC
Wind 3 kt from variable directions
Visibility: 7000 m
Becoming
from 28 at 20 UTC to 28 at 22 UTC
Wind 10 kt from the West/Northwest
Becoming
from 29 at 08 UTC to 29 at 10 UTC
Wind 10 kt from the East
Becoming
from 29 at 14 UTC to 29 at 16 UTC
Wind 3 kt from variable directions

TAF: OMFJ 281700Z 2818/2924 VRB03KT 7000 NSC BECMG 2820/2822 29010KT BECMG 2908/2910 10010KT BECMG 2914/2916 VRB03KT

Weather observations and forecasts of more than 4000 airports (METAR and TAF reports).

The available stations are represented by yellow and red dots on the map.

Hover mouse over dot to see the name of the station.

Then click to see weather observations and forecasts.

To change the map : click on the green buttons with a black cross to zoom in, on the green button with a dash to zoom out, or on the green arrows for adjacent maps.


METAR-TAF: